Patna, India

9:51 AM IST on September 05, 2015 (GMT +0530)
Patna | | Change Station
CLOSE
Current Station
Airport
Location: Patna,
Elevation: 197 ft
Nearby Weather Stations

Elev 197 ft 25.59 °N, 85.09 °E | Updated 31 minutes ago

Haze
Haze
90 °F
Feels Like 108 °F
N
7
Wind Variable Wind from WNW

Today
High -- | Low -- °F
--% Chance of Precip.
Yesterday
High -- | Low -- °F
Precip. -- in
5:31 AM 6:05 PM
Waning Gibbous, 53% visible
Pressure 29.77 in
Visibility 1.6 miles
Clouds Scattered Clouds 10000 ft
Heat Index 108 °F
Dew Point 81 °F
Humidity 75%
Rainfall 0.00 in
Snow Depth Not available.
UV 9 out of 12
Pollen Not available.
Air Quality Not available.
Flu Activity Not available.
METAR VEPT 050350Z 30006KT 2500 HZ SCT100 32/27 Q1008 BECMG 3000 HZ
Pressure 29.77 in
Visibility 1.6 miles
Clouds Scattered Clouds 10000 ft
Heat Index 108 °F
Dew Point 81 °F
Humidity 75%
Rainfall 0.00 in
Snow Depth Not available.
UV 9 out of 12
Pollen Not available.
Air Quality Not available.
Flu Activity Not available.
METAR VEPT 050350Z 30006KT 2500 HZ SCT100 32/27 Q1008 BECMG 3000 HZ

10-Day Weather Forecast

×

Almanac

Astronomy

Sep. 05, 2015 Rise Set
Actual Time
Civil Twilight
Nautical Twilight
Astronomical Twilight
Moon
Length of Visible Light
Length of Day
Tomorrow will be .
, % of the Moon is Illuminated

Today's Extremes

Country Highs Country Lows

Community

WunderPhotos

Upload Photos

1,852,423 photos uploaded!

WunderBlogs® & News

Nearby

Air Quality

  Air Quality AQ Index Pollutant
Not available.

Snow Depth

Station Depth Elevation

Earthquake Activity

City Distance Mag. Time & Date
Minimum magnitude displayed is 2.5.

Coastal Water Temperatures

Place Temperature

Stations

Nearby Weather Stations

Station Location Temp. Windchill Dew Point Humidity Wind Precip. Elev Updated Type